Aérodrome :
LOGIN :

S'inscrire | Disclaimer

   EN    FR    IT 

 










Légende :    VFR   VFR Marginal   IFR   IFR Intensif   IFR Très Intensif
Visi : 
Plafond : 
>= 8 km
>= 3000ft
5 à 8 km
1000 à 3000 ft
1500m à 5 km
500 à 1000 ft
800 à 1500m
200 à 500 ft
< 800m
< 200 ft
Symboles :   Orages  Brouillard  Fortes neiges  Fortes précipitations  Vent > 20 kt
SIGMETs :   Divers  Orages  Givrage  Turbulence  Onde Orograph.  Cendres Volcan.







- Altitude de l'aérodrome : 79 ft
- Code IATA : NSY


LICZ - Sigonella (Mil) Catania

DERNIER METAR :
  • 192255Z 25005KT CAVOK 16/16 Q1018 RMK SCT SCT200 VIS MIN 9999 WIND THR28 25006KT WIND THR10 25004KT A3007 BLU

METARs EXPIRÉS :
  • 192155Z 24003KT CAVOK 16/16 Q1018 RMK SKC VIS MIN 9999 WIND THR28 24003KT WIND THR10 25002KT A3007 BLU
  • 192055Z 24003KT CAVOK 18/18 Q1018 RMK SCT SCT200 VIS MIN 9999 WIND THR28 24003KT WIND THR10 29003KT A3007 BLU

TAF TAF LICZ
Valide du 19 à 21h jusqu'au 20 à 06h UTC


192000Z 1921/2006 VRB03KT 6000 FEW030 SCT070
Pas de NOTAMs connus pour ce terrain.



MET'MAP, la Météo Aéronautique d'un coup d'oeil ! - Copyright ORBIFLY Décembre 2007 - Disclaimer

ORBIFLY MET'MAP TEAM :

Programmation & Développement : Alexandra Zaïnal
Conception & Développement : Baudouin d'Aumeries
Co-Programmation & Développement : Marc-Olivier Méhu
Soutien technique & logistique : Manuel Goepfert

Contact : metmap@orbifly.com




SOURCES & CREDITS :

   NOAA